Time;durP1;ratioP1;P1;durP2;ratioP2;P2;SDS_P1;SDS_P2;PMS_P1;PMS_P2;Temp;Humidity;BMP_temperature;BMP_pressure;BME280_temperature;BME280_humidity;BME280_pressure;Samples;Min_cycle;Max_cycle;Signal;HPM_P1;HPM_P2
2023/01/23 00:00:48;;;;;;;19.63;9.30;;;3.80;99.90;;;;;;5000102;28;20527;-44
2023/01/23 00:03:15;;;;;;;16.93;10.20;;;3.80;99.90;;;;;;4983678;28;20435;-42
2023/01/23 00:05:42;;;;;;;14.97;8.57;;;3.80;99.90;;;;;;5000196;28;20453;-43
2023/01/23 00:08:12;;;;;;;18.23;7.47;;;3.80;99.90;;;;;;4999769;28;20487;-42
2023/01/23 00:10:39;;;;;;;22.27;9.37;;;3.80;99.90;;;;;;5000199;28;20438;-50
2023/01/23 00:13:06;;;;;;;16.80;7.93;;;3.80;99.90;;;;;;5000564;28;20435;-43
2023/01/23 00:15:33;;;;;;;17.33;8.77;;;3.80;99.90;;;;;;4999869;28;20535;-42
2023/01/23 00:18:01;;;;;;;19.90;9.77;;;3.80;99.90;;;;;;5000120;28;20475;-42
2023/01/23 00:20:28;;;;;;;18.00;9.63;;;3.80;99.90;;;;;;5000150;28;20458;-46
2023/01/23 00:22:57;;;;;;;23.37;11.40;;;3.80;99.90;;;;;;4983208;28;20430;-44
2023/01/23 00:25:25;;;;;;;17.40;9.80;;;3.80;99.90;;;;;;5000038;28;20443;-40
2023/01/23 00:27:55;;;;;;;14.57;8.50;;;3.70;99.90;;;;;;4999851;28;20474;-43
2023/01/23 00:30:22;;;;;;;19.03;8.60;;;3.70;99.90;;;;;;4999495;28;20482;-45
2023/01/23 00:32:50;;;;;;;18.37;9.07;;;3.70;99.90;;;;;;4998811;28;20482;-44
2023/01/23 00:35:18;;;;;;;12.27;6.83;;;3.70;99.90;;;;;;4999019;28;20446;-44
2023/01/23 00:37:45;;;;;;;16.67;10.80;;;3.80;99.90;;;;;;4999594;28;20439;-46
2023/01/23 00:40:15;;;;;;;23.27;11.03;;;3.70;99.90;;;;;;4999531;28;20486;-45
2023/01/23 00:42:45;;;;;;;19.73;8.77;;;3.80;99.90;;;;;;4999216;28;20431;-42
2023/01/23 00:45:15;;;;;;;20.93;9.63;;;3.80;99.90;;;;;;4999659;28;20431;-43
2023/01/23 00:47:46;;;;;;;21.97;9.63;;;3.80;99.90;;;;;;4987042;28;20474;-42
2023/01/23 00:50:13;;;;;;;17.60;8.17;;;3.80;99.90;;;;;;4989553;28;20434;-43
2023/01/23 00:52:42;;;;;;;20.83;8.23;;;3.80;99.90;;;;;;4992244;28;20777;-43
2023/01/23 00:55:10;;;;;;;15.27;7.50;;;3.80;99.90;;;;;;4994693;28;20447;-50
2023/01/23 00:57:39;;;;;;;17.37;9.80;;;3.80;99.90;;;;;;4998793;28;20451;-39
2023/01/23 01:00:06;;;;;;;18.87;10.03;;;3.70;99.90;;;;;;4998665;28;20442;-43
2023/01/23 01:02:33;;;;;;;18.53;8.30;;;3.70;99.90;;;;;;4998748;28;20470;-43
2023/01/23 01:05:03;;;;;;;14.30;9.17;;;3.70;99.90;;;;;;4999001;28;20490;-45
2023/01/23 01:07:30;;;;;;;18.23;9.37;;;3.80;99.90;;;;;;4999266;28;20462;-40
2023/01/23 01:09:58;;;;;;;14.90;9.20;;;3.70;99.90;;;;;;4998383;28;20496;-47
2023/01/23 01:12:27;;;;;;;22.13;11.53;;;3.70;99.90;;;;;;4999103;28;20474;-43
2023/01/23 01:14:54;;;;;;;23.10;11.33;;;3.80;99.90;;;;;;4999101;28;20446;-44
2023/01/23 01:17:21;;;;;;;15.80;8.03;;;3.80;99.90;;;;;;4999090;28;20443;-42
2023/01/23 01:19:48;;;;;;;15.33;7.77;;;3.80;99.90;;;;;;4999134;28;20467;-48
2023/01/23 01:22:18;;;;;;;21.90;9.50;;;3.80;99.90;;;;;;4998656;28;20427;-47
2023/01/23 01:24:46;;;;;;;16.80;9.53;;;3.80;99.90;;;;;;4999041;28;20419;-40
2023/01/23 01:27:14;;;;;;;15.63;7.40;;;3.80;99.90;;;;;;4998524;28;20506;-43
2023/01/23 01:29:41;;;;;;;15.57;9.37;;;3.80;99.90;;;;;;4998801;28;20423;-42
2023/01/23 01:32:09;;;;;;;13.30;8.17;;;3.80;99.90;;;;;;4998528;28;20443;-40
2023/01/23 01:34:39;;;;;;;22.47;9.97;;;3.80;99.90;;;;;;4998722;28;20501;-42
2023/01/23 01:39:41;;;;;;;15.47;8.77;;;3.80;99.90;;;;;;5098284;23;20520;-45
2023/01/23 01:42:08;;;;;;;20.07;8.47;;;3.80;99.90;;;;;;4997533;28;20502;-44
2023/01/23 01:44:55;;;;;;;17.30;9.80;;;3.90;99.90;;;;;;4997455;28;20443;-47
2023/01/23 01:47:23;;;;;;;13.60;7.67;;;3.80;99.90;;;;;;4997463;28;20454;-43
2023/01/23 01:49:52;;;;;;;22.80;9.70;;;3.80;99.90;;;;;;4997747;28;20478;-41
2023/01/23 01:52:23;;;;;;;26.63;8.60;;;3.80;99.90;;;;;;4997064;28;20435;-46
2023/01/23 01:54:56;;;;;;;20.87;10.40;;;3.70;99.90;;;;;;4997311;28;20454;-47
2023/01/23 01:57:28;;;;;;;17.47;9.70;;;3.80;99.90;;;;;;4997088;28;20419;-42
2023/01/23 02:00:00;;;;;;;20.00;8.27;;;3.80;99.90;;;;;;4997139;28;20447;-43
2023/01/23 02:02:29;;;;;;;17.70;8.70;;;3.80;99.90;;;;;;4996951;28;20415;-46
2023/01/23 02:05:00;;;;;;;18.43;8.10;;;3.70;99.90;;;;;;4996080;28;20435;-44
2023/01/23 02:07:33;;;;;;;15.00;8.87;;;3.70;99.90;;;;;;4996268;28;20446;-46
2023/01/23 02:10:02;;;;;;;14.67;8.30;;;3.70;99.90;;;;;;4996414;28;20451;-42
2023/01/23 02:12:30;;;;;;;19.33;9.70;;;3.70;99.90;;;;;;4995742;28;20439;-41
2023/01/23 02:14:59;;;;;;;12.97;7.97;;;3.70;99.90;;;;;;4987659;28;20546;-44
2023/01/23 02:17:26;;;;;;;21.50;9.57;;;3.70;99.90;;;;;;4990378;28;20481;-43
2023/01/23 02:19:58;;;;;;;25.20;10.10;;;3.60;99.90;;;;;;4985651;28;20526;-44
2023/01/23 02:22:35;;;;;;;13.53;8.40;;;3.60;99.90;;;;;;4995987;28;20454;-45
2023/01/23 02:25:11;;;;;;;17.30;8.93;;;3.70;99.90;;;;;;4996586;28;20497;-46
2023/01/23 02:27:39;;;;;;;22.10;9.40;;;3.70;99.90;;;;;;4995428;28;20423;-47
2023/01/23 02:30:07;;;;;;;18.17;8.30;;;3.70;99.90;;;;;;4994661;28;20470;-45
2023/01/23 02:32:35;;;;;;;14.63;7.50;;;3.70;99.90;;;;;;4995547;28;20455;-42
2023/01/23 02:35:09;;;;;;;22.03;10.33;;;3.70;99.90;;;;;;4995805;28;20451;-44
2023/01/23 02:37:40;;;;;;;16.53;9.27;;;3.70;99.90;;;;;;4985367;28;20498;-47
2023/01/23 02:40:09;;;;;;;14.73;7.80;;;3.70;99.90;;;;;;4996144;28;20483;-45
2023/01/23 02:42:41;;;;;;;20.23;9.10;;;3.70;99.90;;;;;;4995454;28;20458;-47
2023/01/23 02:45:09;;;;;;;14.67;7.93;;;3.80;99.90;;;;;;4996345;28;20467;-47
2023/01/23 02:47:36;;;;;;;16.90;10.03;;;3.80;99.90;;;;;;4995843;28;20478;-46
2023/01/23 02:50:03;;;;;;;22.13;10.10;;;3.80;99.90;;;;;;4997368;28;20474;-47
2023/01/23 02:52:30;;;;;;;17.10;9.30;;;3.80;99.90;;;;;;4999393;28;20470;-45
2023/01/23 02:54:57;;;;;;;17.90;8.20;;;3.80;99.90;;;;;;4999546;28;20455;-42
2023/01/23 02:57:24;;;;;;;16.30;8.53;;;3.90;99.90;;;;;;4999858;28;20442;-42
2023/01/23 03:02:38;;;;;;;21.83;10.30;;;3.80;99.90;;;;;;4999414;28;20415;-45
2023/01/23 03:05:05;;;;;;;20.17;11.47;;;3.80;99.90;;;;;;4999593;28;20675;-42
2023/01/23 03:07:32;;;;;;;19.90;10.10;;;3.80;99.90;;;;;;4999648;28;20489;-47
2023/01/23 03:09:59;;;;;;;22.27;8.90;;;3.80;99.90;;;;;;4999468;28;20487;-44
2023/01/23 03:12:26;;;;;;;25.33;12.27;;;3.80;99.90;;;;;;4999023;28;20478;-44
2023/01/23 03:14:55;;;;;;;22.30;9.87;;;3.70;99.90;;;;;;4999457;28;20467;-45
2023/01/23 03:17:22;;;;;;;25.87;10.80;;;3.80;99.90;;;;;;4999178;28;20452;-46
2023/01/23 03:19:49;;;;;;;20.13;10.37;;;3.80;99.90;;;;;;4998771;28;20438;-47
2023/01/23 03:22:16;;;;;;;17.10;8.73;;;3.80;99.90;;;;;;4998732;28;20450;-45
2023/01/23 03:24:43;;;;;;;24.20;9.17;;;3.80;99.90;;;;;;4998511;28;20462;-44
2023/01/23 03:27:10;;;;;;;16.17;10.43;;;3.80;99.90;;;;;;4999166;28;20461;-49
2023/01/23 03:32:24;;;;;;;12.73;7.80;;;3.80;99.90;;;;;;4994390;28;20474;-45
2023/01/23 03:34:51;;;;;;;23.13;10.47;;;3.80;99.90;;;;;;4998965;28;20475;-46
2023/01/23 03:37:19;;;;;;;17.07;9.70;;;3.80;99.90;;;;;;4999196;28;20470;-43
2023/01/23 03:42:33;;;;;;;19.97;9.07;;;3.80;99.90;;;;;;5000146;28;20423;-47
2023/01/23 03:45:00;;;;;;;15.13;9.30;;;3.80;99.90;;;;;;4999166;28;20489;-48
2023/01/23 03:47:28;;;;;;;21.67;10.47;;;3.80;99.90;;;;;;5000197;28;20475;-48
2023/01/23 03:49:55;;;;;;;14.23;8.97;;;3.80;99.90;;;;;;4998998;28;20493;-49
2023/01/23 03:52:21;;;;;;;23.73;9.63;;;3.80;99.90;;;;;;4999269;28;20466;-43
2023/01/23 03:54:48;;;;;;;21.53;8.20;;;3.80;99.90;;;;;;4999147;28;20435;-46
2023/01/23 03:57:15;;;;;;;13.73;7.07;;;3.80;99.90;;;;;;4998815;28;20494;-47
2023/01/23 03:59:42;;;;;;;27.93;13.03;;;3.80;99.90;;;;;;4998960;28;20431;-43
2023/01/23 04:02:09;;;;;;;20.37;9.60;;;3.80;99.90;;;;;;4998464;28;20501;-42
2023/01/23 04:04:38;;;;;;;13.90;8.83;;;3.80;99.90;;;;;;4998381;28;20482;-45
2023/01/23 04:07:05;;;;;;;30.27;11.20;;;3.80;99.90;;;;;;4999189;28;20470;-44
2023/01/23 04:09:32;;;;;;;38.13;14.83;;;3.70;99.90;;;;;;4998803;28;20498;-46
2023/01/23 04:11:59;;;;;;;33.87;15.50;;;3.70;99.90;;;;;;4998048;28;20491;-46
2023/01/23 04:14:29;;;;;;;22.27;9.97;;;3.80;99.90;;;;;;4998857;28;20431;-49
2023/01/23 04:16:56;;;;;;;18.20;9.90;;;3.70;99.90;;;;;;4998366;28;20487;-45
2023/01/23 04:19:23;;;;;;;20.43;9.83;;;3.80;99.90;;;;;;4998341;28;20478;-44
2023/01/23 04:21:51;;;;;;;20.70;10.47;;;3.80;99.90;;;;;;4998170;28;20455;-48
2023/01/23 04:24:18;;;;;;;13.03;7.97;;;3.70;99.90;;;;;;4989899;28;20443;-45
2023/01/23 04:26:45;;;;;;;19.53;9.43;;;3.70;99.90;;;;;;4996543;28;20440;-46
2023/01/23 04:29:12;;;;;;;17.13;8.63;;;3.70;99.90;;;;;;4996943;28;20488;-45
2023/01/23 04:31:39;;;;;;;20.60;10.83;;;3.70;99.90;;;;;;4997958;28;20551;-43
2023/01/23 04:34:06;;;;;;;23.43;9.23;;;3.80;99.90;;;;;;4998118;28;20454;-47
2023/01/23 04:36:32;;;;;;;19.97;11.83;;;3.80;99.90;;;;;;4998360;28;20455;-49
2023/01/23 04:39:01;;;;;;;24.60;10.10;;;3.90;99.90;;;;;;4998102;28;20463;-44
2023/01/23 04:41:29;;;;;;;21.00;10.47;;;3.90;99.90;;;;;;4998724;28;20469;-44
2023/01/23 04:44:18;;;;;;;15.17;7.90;;;3.90;99.90;;;;;;4998404;28;20454;-44
2023/01/23 04:46:45;;;;;;;18.80;9.53;;;3.90;99.90;;;;;;4998442;28;20438;-44
2023/01/23 04:49:12;;;;;;;20.53;10.57;;;3.80;99.90;;;;;;4998616;28;20498;-43
2023/01/23 04:51:39;;;;;;;23.33;10.80;;;3.90;99.90;;;;;;4998445;28;20458;-40
2023/01/23 04:54:07;;;;;;;23.40;9.77;;;3.80;99.90;;;;;;4997345;28;20458;-49
2023/01/23 04:56:34;;;;;;;23.63;9.77;;;3.80;99.90;;;;;;4998114;28;20454;-46
2023/01/23 04:59:01;;;;;;;17.70;8.30;;;3.70;99.90;;;;;;4998428;28;20454;-46
2023/01/23 05:01:28;;;;;;;21.27;11.03;;;3.80;99.90;;;;;;4997703;28;20443;-45
2023/01/23 05:03:55;;;;;;;20.50;9.40;;;3.80;99.90;;;;;;4996955;28;20486;-49
2023/01/23 05:06:21;;;;;;;24.97;9.97;;;3.80;99.90;;;;;;4997289;28;20467;-45
2023/01/23 05:08:48;;;;;;;20.83;9.50;;;3.70;99.90;;;;;;4997002;28;20521;-46
2023/01/23 05:11:17;;;;;;;13.50;8.70;;;3.70;99.90;;;;;;4996761;28;20486;-50
2023/01/23 05:13:46;;;;;;;18.77;8.40;;;3.70;99.90;;;;;;4996339;28;20869;-49
2023/01/23 05:16:13;;;;;;;13.40;8.03;;;3.70;99.90;;;;;;4997248;28;20427;-49
2023/01/23 05:18:40;;;;;;;17.37;10.70;;;3.70;99.90;;;;;;4996852;28;21072;-45
2023/01/23 05:21:07;;;;;;;16.47;9.57;;;3.70;99.90;;;;;;4997376;28;20446;-46
2023/01/23 05:23:34;;;;;;;24.77;12.27;;;3.70;99.90;;;;;;4996616;28;20435;-45
2023/01/23 05:26:03;;;;;;;23.30;8.50;;;3.70;99.90;;;;;;4997050;28;20486;-47
2023/01/23 05:28:31;;;;;;;17.27;9.00;;;3.70;99.90;;;;;;4996516;28;20482;-47
2023/01/23 05:30:58;;;;;;;18.13;9.93;;;3.70;99.90;;;;;;4996605;28;20454;-45
2023/01/23 05:33:25;;;;;;;20.87;10.90;;;3.70;99.90;;;;;;4996665;28;20483;-42
2023/01/23 05:35:52;;;;;;;25.63;10.20;;;3.70;99.90;;;;;;4996621;28;20491;-46
2023/01/23 05:38:19;;;;;;;20.03;9.90;;;3.70;99.90;;;;;;4996476;28;20486;-45
2023/01/23 05:40:45;;;;;;;24.47;11.07;;;3.70;99.90;;;;;;4996365;28;20453;-44
2023/01/23 05:43:15;;;;;;;23.43;9.80;;;3.70;99.90;;;;;;4995931;28;20471;-45
2023/01/23 05:45:43;;;;;;;19.13;8.77;;;3.70;99.90;;;;;;4996084;28;20494;-48
2023/01/23 05:48:10;;;;;;;21.43;11.10;;;3.70;99.90;;;;;;4996783;28;20450;-46
2023/01/23 05:50:37;;;;;;;22.60;12.07;;;3.70;99.90;;;;;;4996706;28;20463;-43
2023/01/23 05:53:05;;;;;;;25.47;12.80;;;3.70;99.90;;;;;;4996318;28;20447;-49
2023/01/23 05:55:32;;;;;;;16.00;8.47;;;3.70;99.90;;;;;;4980859;28;20462;-44
2023/01/23 05:57:59;;;;;;;20.93;11.00;;;3.70;99.90;;;;;;4980689;28;20478;-46
2023/01/23 06:00:26;;;;;;;24.80;10.87;;;3.70;99.90;;;;;;5011464;28;20430;-44
2023/01/23 06:02:54;;;;;;;25.47;11.77;;;3.70;99.90;;;;;;5007913;28;20459;-44
2023/01/23 06:05:22;;;;;;;23.60;12.20;;;3.70;99.90;;;;;;4977667;28;20531;-49
2023/01/23 06:07:55;;;;;;;30.80;11.87;;;3.60;99.90;;;;;;4976650;29;20499;-47
2023/01/23 06:10:22;;;;;;;22.37;10.07;;;3.70;99.90;;;;;;4986451;28;20487;-44
2023/01/23 06:12:49;;;;;;;15.30;9.87;;;3.70;99.90;;;;;;4981160;28;20458;-43
2023/01/23 06:15:16;;;;;;;17.83;10.47;;;3.70;99.90;;;;;;4984116;28;20432;-47
2023/01/23 06:17:42;;;;;;;15.30;8.27;;;3.70;99.90;;;;;;4996378;28;20526;-43
2023/01/23 06:20:12;;;;;;;17.10;9.43;;;3.70;99.90;;;;;;4995829;28;20497;-46
2023/01/23 06:22:39;;;;;;;20.73;9.60;;;3.70;99.90;;;;;;4987331;28;20487;-45
2023/01/23 06:25:07;;;;;;;17.43;9.77;;;3.70;99.90;;;;;;4975466;28;20459;-44
2023/01/23 06:27:34;;;;;;;19.20;11.03;;;3.70;99.90;;;;;;4968029;28;20500;-44
2023/01/23 06:30:00;;;;;;;21.57;11.27;;;3.60;99.90;;;;;;4982307;28;20525;-44
2023/01/23 06:32:27;;;;;;;24.23;12.47;;;3.60;99.90;;;;;;4976003;28;20569;-44
2023/01/23 06:34:54;;;;;;;21.57;10.83;;;3.60;99.90;;;;;;4976637;28;20471;-45
2023/01/23 06:37:22;;;;;;;22.13;10.97;;;3.60;99.90;;;;;;4978911;28;20479;-45
2023/01/23 06:39:49;;;;;;;25.77;11.90;;;3.60;99.90;;;;;;4989026;28;20454;-44
2023/01/23 06:42:16;;;;;;;18.90;11.63;;;3.70;99.90;;;;;;4976726;28;20480;-44
2023/01/23 06:44:43;;;;;;;22.33;11.20;;;3.70;99.90;;;;;;4979661;28;20466;-45
2023/01/23 06:47:10;;;;;;;18.93;10.20;;;3.70;99.90;;;;;;4980932;28;20448;-48
2023/01/23 06:49:37;;;;;;;15.17;9.43;;;3.70;99.90;;;;;;4976774;29;20499;-48
2023/01/23 06:52:04;;;;;;;21.33;8.40;;;3.70;99.90;;;;;;4976520;29;20448;-46
2023/01/23 06:54:32;;;;;;;12.73;9.10;;;3.70;99.90;;;;;;4976044;29;20482;-49
2023/01/23 06:56:59;;;;;;;14.90;8.40;;;3.70;99.90;;;;;;4977027;29;20497;-45
2023/01/23 06:59:26;;;;;;;20.83;10.70;;;3.70;99.90;;;;;;4976383;29;20455;-48
2023/01/23 07:01:53;;;;;;;17.97;8.97;;;3.70;99.90;;;;;;4976361;29;20535;-42
2023/01/23 07:04:20;;;;;;;14.53;8.80;;;3.70;99.90;;;;;;4975615;29;20442;-48
2023/01/23 07:06:46;;;;;;;21.23;10.57;;;3.70;99.90;;;;;;4976364;29;20483;-46
2023/01/23 07:09:15;;;;;;;18.07;9.07;;;3.70;99.90;;;;;;4976985;29;20543;-44
2023/01/23 07:11:43;;;;;;;22.73;11.40;;;3.70;99.90;;;;;;4976925;29;20471;-42
2023/01/23 07:14:10;;;;;;;19.57;10.90;;;3.70;99.90;;;;;;4975801;29;20435;-43
2023/01/23 07:16:37;;;;;;;20.80;11.23;;;3.70;99.90;;;;;;4977258;29;20492;-42
2023/01/23 07:19:04;;;;;;;22.43;11.50;;;3.70;99.90;;;;;;4977163;29;20459;-41
2023/01/23 07:21:31;;;;;;;20.50;10.30;;;3.70;99.90;;;;;;4976769;29;20533;-46
2023/01/23 07:23:58;;;;;;;22.67;11.60;;;3.70;99.90;;;;;;4976243;29;20457;-44
2023/01/23 07:26:25;;;;;;;19.30;10.50;;;3.70;99.90;;;;;;4976915;29;20463;-43
2023/01/23 07:28:53;;;;;;;24.33;10.87;;;3.70;99.90;;;;;;4976947;29;20471;-47
2023/01/23 07:31:20;;;;;;;18.73;9.27;;;3.80;99.90;;;;;;4976299;29;20491;-45
2023/01/23 07:33:47;;;;;;;15.53;9.73;;;3.70;99.90;;;;;;4975332;29;20456;-44
2023/01/23 07:36:14;;;;;;;18.37;9.47;;;3.80;99.90;;;;;;4977769;28;20506;-44
2023/01/23 07:38:41;;;;;;;19.13;9.67;;;3.80;99.90;;;;;;4979510;29;20452;-47
2023/01/23 07:41:08;;;;;;;20.20;11.30;;;3.80;99.90;;;;;;4979395;29;20455;-44
2023/01/23 07:43:35;;;;;;;20.67;10.23;;;3.80;99.90;;;;;;4979136;29;20478;-45
2023/01/23 07:46:05;;;;;;;15.33;9.07;;;3.70;99.90;;;;;;4979055;29;20431;-49
2023/01/23 07:48:32;;;;;;;21.73;11.07;;;3.70;99.90;;;;;;4979162;29;20509;-44
2023/01/23 07:51:01;;;;;;;20.23;10.07;;;3.70;99.90;;;;;;4979105;29;20479;-43
2023/01/23 07:53:28;;;;;;;21.37;9.17;;;3.60;99.90;;;;;;4968667;29;20889;-45
2023/01/23 07:55:55;;;;;;;15.40;9.37;;;3.70;99.90;;;;;;4977831;29;20472;-46
2023/01/23 07:58:22;;;;;;;20.83;9.87;;;3.60;99.90;;;;;;4978988;29;20420;-46
2023/01/23 08:00:49;;;;;;;16.97;8.80;;;3.60;99.90;;;;;;4979152;29;20447;-44
2023/01/23 08:03:17;;;;;;;19.77;10.83;;;3.70;99.90;;;;;;4978223;28;20467;-49
2023/01/23 08:05:48;;;;;;;18.77;9.47;;;3.70;99.90;;;;;;4978892;29;20444;-46
2023/01/23 08:08:15;;;;;;;19.20;10.40;;;3.70;99.90;;;;;;4978704;29;20475;-45
2023/01/23 08:10:42;;;;;;;20.47;9.53;;;3.70;99.90;;;;;;4978760;28;20539;-44
2023/01/23 08:13:09;;;;;;;22.90;13.17;;;3.80;99.90;;;;;;4978391;29;20482;-44
2023/01/23 08:15:37;;;;;;;21.73;10.67;;;3.80;99.90;;;;;;4978789;29;20484;-47
2023/01/23 08:18:04;;;;;;;23.70;9.57;;;3.80;99.90;;;;;;4979022;29;20421;-45
2023/01/23 08:20:32;;;;;;;20.20;10.83;;;3.80;99.90;;;;;;4979054;29;20455;-49
2023/01/23 08:23:00;;;;;;;16.93;9.50;;;3.80;99.90;;;;;;4978496;29;20463;-46
2023/01/23 08:25:28;;;;;;;21.13;10.80;;;3.80;99.90;;;;;;4979151;29;20776;-48
2023/01/23 08:27:54;;;;;;;21.13;10.23;;;3.80;99.90;;;;;;4978601;29;20478;-46
2023/01/23 08:30:21;;;;;;;20.10;10.33;;;3.80;99.90;;;;;;4978863;29;20495;-47
2023/01/23 08:32:48;;;;;;;19.17;9.93;;;3.80;99.90;;;;;;4977852;29;20440;-42
2023/01/23 08:35:16;;;;;;;18.90;10.33;;;3.80;99.90;;;;;;5008471;28;20497;-47
2023/01/23 08:37:44;;;;;;;23.07;11.00;;;3.80;99.90;;;;;;5005039;28;20462;-47
2023/01/23 08:40:12;;;;;;;19.77;10.90;;;3.80;99.90;;;;;;5003583;28;20434;-39
2023/01/23 08:42:39;;;;;;;21.60;11.17;;;3.90;99.90;;;;;;5017201;28;20448;-41
2023/01/23 08:45:07;;;;;;;27.20;11.73;;;3.90;99.90;;;;;;5001154;28;20463;-48
2023/01/23 08:47:35;;;;;;;28.37;12.30;;;4.70;99.90;;;;;;4996971;28;20475;-42
2023/01/23 08:50:02;;;;;;;18.50;10.13;;;4.70;99.90;;;;;;4997988;28;20505;-45
2023/01/23 08:52:29;;;;;;;27.07;11.67;;;4.50;99.90;;;;;;4983539;28;20440;-42
2023/01/23 08:54:58;;;;;;;25.70;10.43;;;4.40;99.90;;;;;;4977229;29;20511;-42
2023/01/23 08:57:25;;;;;;;22.73;10.87;;;4.30;99.90;;;;;;4977523;29;20455;-48
2023/01/23 08:59:52;;;;;;;23.77;11.47;;;4.20;99.90;;;;;;4977927;29;20456;-44
2023/01/23 09:02:18;;;;;;;21.73;10.80;;;4.20;99.90;;;;;;4977690;29;20447;-48
2023/01/23 09:04:45;;;;;;;14.57;9.50;;;4.10;99.90;;;;;;5000319;28;20448;-46
2023/01/23 09:07:12;;;;;;;19.33;8.13;;;4.10;99.90;;;;;;5009634;28;20510;-44
2023/01/23 09:09:39;;;;;;;22.40;12.67;;;4.10;99.90;;;;;;4997290;28;20474;-49
2023/01/23 09:12:08;;;;;;;20.30;11.20;;;4.10;99.90;;;;;;4996829;28;20463;-48
2023/01/23 09:14:35;;;;;;;18.30;9.70;;;4.00;99.90;;;;;;5008961;28;20447;-46
2023/01/23 09:17:01;;;;;;;15.70;9.20;;;4.00;99.90;;;;;;5009526;28;20470;-42
2023/01/23 09:19:30;;;;;;;22.23;11.70;;;4.00;99.90;;;;;;5006442;28;20526;-44
2023/01/23 09:21:57;;;;;;;18.83;10.20;;;3.90;99.90;;;;;;4997241;28;20498;-40
2023/01/23 09:24:24;;;;;;;18.17;9.50;;;4.00;99.90;;;;;;4996126;28;20470;-42
2023/01/23 09:26:51;;;;;;;18.63;10.33;;;4.00;99.90;;;;;;4996795;28;20450;-40
2023/01/23 09:29:19;;;;;;;15.80;9.47;;;4.00;99.90;;;;;;4991990;28;20443;-42
2023/01/23 09:31:46;;;;;;;18.20;9.70;;;4.00;99.90;;;;;;4994134;28;20486;-47
2023/01/23 09:34:13;;;;;;;17.80;12.07;;;4.00;99.90;;;;;;4998104;28;20463;-43
2023/01/23 09:36:40;;;;;;;22.70;9.97;;;4.00;99.90;;;;;;4998244;28;20447;-44
2023/01/23 09:39:06;;;;;;;23.00;10.23;;;4.00;99.90;;;;;;4998360;28;20482;-44
2023/01/23 09:41:33;;;;;;;19.00;9.67;;;4.00;99.90;;;;;;4991996;28;20531;-46
2023/01/23 09:44:06;;;;;;;17.53;10.53;;;4.00;99.90;;;;;;4997811;28;20475;-43
2023/01/23 09:46:39;;;;;;;21.17;10.60;;;4.00;99.90;;;;;;4998636;28;20441;-44
2023/01/23 09:49:13;;;;;;;20.87;9.70;;;4.00;99.90;;;;;;4998292;28;20447;-43
2023/01/23 09:51:53;;;;;;;18.73;9.90;;;4.00;99.90;;;;;;4988506;28;20511;-40
2023/01/23 09:54:31;;;;;;;20.13;10.00;;;4.10;99.90;;;;;;4997898;28;20470;-42
2023/01/23 09:57:02;;;;;;;19.77;10.60;;;4.00;99.90;;;;;;4997070;28;20891;-42
2023/01/23 09:59:35;;;;;;;16.90;9.70;;;4.00;99.90;;;;;;4996772;28;20423;-41
2023/01/23 10:02:10;;;;;;;18.93;9.50;;;4.00;99.90;;;;;;4997434;28;20446;-40
2023/01/23 10:04:37;;;;;;;18.07;10.47;;;4.00;99.90;;;;;;4997172;28;20439;-42
2023/01/23 10:07:25;;;;;;;22.20;13.80;;;4.00;99.90;;;;;;4988590;28;20466;-41
2023/01/23 10:10:04;;;;;;;19.67;11.23;;;4.10;99.90;;;;;;4994105;28;20471;-42
2023/01/23 10:12:44;;;;;;;16.60;10.10;;;4.10;99.90;;;;;;4997487;28;20467;-40
2023/01/23 10:15:26;;;;;;;21.00;11.00;;;4.10;99.90;;;;;;4997183;28;20427;-43
2023/01/23 10:18:02;;;;;;;24.90;12.40;;;4.10;99.90;;;;;;4997256;28;20470;-44
2023/01/23 10:20:57;;;;;;;19.63;12.13;;;4.10;99.90;;;;;;4997423;28;20491;-41
2023/01/23 10:23:41;;;;;;;20.00;10.70;;;4.10;99.90;;;;;;4993833;28;20427;-42
2023/01/23 10:26:15;;;;;;;18.27;10.77;;;4.10;99.90;;;;;;4992405;28;20433;-43
2023/01/23 10:28:45;;;;;;;23.20;12.07;;;4.20;99.90;;;;;;4994079;28;20435;-44
2023/01/23 10:31:27;;;;;;;18.30;10.57;;;4.20;99.90;;;;;;4997098;28;20498;-41
2023/01/23 10:34:01;;;;;;;21.30;10.47;;;4.20;99.90;;;;;;4997571;28;20421;-43
2023/01/23 10:36:35;;;;;;;22.57;11.10;;;4.10;99.90;;;;;;4997438;28;20465;-41
2023/01/23 10:39:05;;;;;;;18.20;11.37;;;4.10;99.90;;;;;;4997296;28;20434;-43
2023/01/23 10:41:33;;;;;;;24.53;11.30;;;4.10;99.90;;;;;;4997076;28;20971;-44
2023/01/23 10:44:01;;;;;;;23.47;11.83;;;4.10;99.90;;;;;;4997582;28;20427;-42
2023/01/23 10:46:31;;;;;;;23.93;12.10;;;4.10;99.90;;;;;;4996974;28;20447;-43
2023/01/23 10:49:01;;;;;;;23.87;13.47;;;4.10;99.90;;;;;;4997005;28;20419;-43
2023/01/23 10:51:34;;;;;;;24.60;12.63;;;4.10;99.90;;;;;;4994786;28;20482;-42
2023/01/23 10:54:14;;;;;;;21.30;11.53;;;4.20;99.90;;;;;;4986433;28;20455;-41
2023/01/23 10:56:49;;;;;;;24.97;13.33;;;4.20;99.90;;;;;;4996180;28;20435;-42
2023/01/23 10:59:26;;;;;;;20.30;12.00;;;4.20;99.90;;;;;;4996402;28;20457;-43
2023/01/23 11:01:58;;;;;;;24.63;10.97;;;4.30;99.90;;;;;;4992881;28;20490;-42
2023/01/23 11:04:29;;;;;;;19.83;10.93;;;4.30;99.90;;;;;;4996523;28;20514;-43
2023/01/23 11:07:08;;;;;;;21.23;11.07;;;4.30;99.90;;;;;;4997089;28;20435;-44
2023/01/23 11:09:50;;;;;;;22.47;11.03;;;4.30;99.90;;;;;;4995467;28;20459;-41
2023/01/23 11:12:19;;;;;;;21.50;12.70;;;5.60;99.90;;;;;;5000799;28;20544;-47
2023/01/23 11:14:46;;;;;;;21.37;11.93;;;5.70;99.90;;;;;;5001286;28;20431;-50
2023/01/23 11:17:22;;;;;;;15.70;9.87;;;5.40;99.90;;;;;;5001284;28;20487;-47
2023/01/23 11:19:53;;;;;;;24.63;12.30;;;5.20;99.90;;;;;;5001535;28;20402;-48
2023/01/23 11:22:32;;;;;;;19.00;10.23;;;5.10;99.90;;;;;;5001431;28;20463;-44
2023/01/23 11:24:59;;;;;;;20.20;10.80;;;5.00;99.90;;;;;;5001207;28;20461;-43
2023/01/23 11:27:29;;;;;;;18.97;11.10;;;4.90;99.90;;;;;;5000763;28;20577;-45
2023/01/23 11:30:26;;;;;;;17.77;9.53;;;4.80;99.90;;;;;;5001431;28;20435;-44
2023/01/23 11:32:58;;;;;;;23.10;11.77;;;4.80;99.90;;;;;;5000469;28;20467;-43
2023/01/23 11:35:42;;;;;;;21.20;11.47;;;4.70;99.90;;;;;;5000742;28;20435;-45
2023/01/23 11:38:12;;;;;;;16.30;9.00;;;4.60;99.90;;;;;;5000337;28;20493;-47
2023/01/23 11:40:39;;;;;;;24.00;12.30;;;4.60;99.90;;;;;;5000087;28;20447;-45
2023/01/23 11:43:13;;;;;;;17.50;8.43;;;4.60;99.90;;;;;;5000195;28;20455;-44
2023/01/23 11:45:48;;;;;;;17.53;8.80;;;4.50;99.90;;;;;;5000637;28;20426;-41
2023/01/23 11:48:28;;;;;;;22.27;11.30;;;4.50;99.90;;;;;;4999965;28;20419;-41
2023/01/23 11:51:03;;;;;;;21.00;10.90;;;4.60;99.90;;;;;;5000010;28;20519;-42
2023/01/23 11:53:42;;;;;;;15.60;9.57;;;4.60;99.90;;;;;;5000027;28;20434;-48
2023/01/23 11:56:29;;;;;;;22.43;11.30;;;4.60;99.90;;;;;;5000130;28;20463;-41
2023/01/23 11:59:32;;;;;;;17.60;8.97;;;4.60;99.90;;;;;;5000426;28;20459;-46
2023/01/23 12:02:41;;;;;;;16.93;12.30;;;4.60;99.90;;;;;;4976422;28;20435;-47
2023/01/23 12:05:18;;;;;;;23.93;10.83;;;4.60;99.90;;;;;;4980016;28;20461;-46
2023/01/23 12:07:52;;;;;;;19.80;10.33;;;4.60;99.90;;;;;;4999887;28;20549;-42
2023/01/23 12:10:26;;;;;;;17.67;9.50;;;4.70;99.90;;;;;;4999985;28;20467;-45
2023/01/23 12:13:13;;;;;;;15.10;9.63;;;4.70;99.90;;;;;;5000482;28;20400;-45
2023/01/23 12:15:45;;;;;;;18.40;9.37;;;4.80;99.90;;;;;;5000480;28;20483;-51
2023/01/23 12:18:25;;;;;;;16.97;9.10;;;4.70;99.90;;;;;;5000169;28;20436;-46
2023/01/23 12:21:01;;;;;;;17.67;8.60;;;4.70;99.90;;;;;;5000116;28;20451;-47
2023/01/23 12:23:47;;;;;;;13.13;7.57;;;4.70;99.90;;;;;;4999614;28;20434;-39
2023/01/23 12:26:18;;;;;;;17.40;9.50;;;4.70;99.90;;;;;;5000280;28;20541;-52
2023/01/23 12:29:04;;;;;;;18.07;7.57;;;4.60;99.90;;;;;;4999617;28;20455;-44
2023/01/23 12:31:49;;;;;;;15.20;8.90;;;4.60;99.90;;;;;;4999330;28;20515;-48
2023/01/23 12:34:35;;;;;;;14.47;8.70;;;4.60;99.90;;;;;;5000035;28;20495;-41
2023/01/23 12:37:18;;;;;;;18.93;10.07;;;4.60;99.90;;;;;;4999961;28;20493;-44
2023/01/23 12:39:59;;;;;;;13.90;7.63;;;4.70;99.90;;;;;;5000040;28;20434;-45
2023/01/23 12:42:30;;;;;;;18.13;9.10;;;4.70;99.90;;;;;;4999679;28;20411;-46
2023/01/23 12:45:09;;;;;;;14.13;7.30;;;4.80;99.90;;;;;;4999693;28;20431;-43
2023/01/23 12:47:42;;;;;;;14.77;7.97;;;4.80;99.90;;;;;;4999426;28;20446;-45
2023/01/23 12:50:22;;;;;;;19.60;8.30;;;4.80;99.90;;;;;;4999480;28;20428;-43
2023/01/23 12:52:53;;;;;;;15.60;7.83;;;4.80;99.90;;;;;;4999293;28;20475;-48
2023/01/23 12:55:26;;;;;;;13.13;8.33;;;4.80;99.90;;;;;;4999130;28;20504;-43
2023/01/23 12:57:56;;;;;;;13.50;8.50;;;4.80;99.90;;;;;;4999341;28;20466;-48
2023/01/23 13:00:34;;;;;;;15.83;8.70;;;4.90;99.90;;;;;;4999119;28;20473;-44
2023/01/23 13:03:20;;;;;;;18.07;9.67;;;4.90;99.90;;;;;;4999462;28;20434;-47
2023/01/23 13:05:56;;;;;;;19.20;8.53;;;4.90;99.90;;;;;;4999252;28;20482;-48
2023/01/23 13:08:34;;;;;;;11.20;6.93;;;4.80;99.90;;;;;;4998807;28;20426;-48